createdAt,value
2019-03-20T00:03:03.861Z,191.05
2019-03-20T00:08:09.549Z,93.40
2019-03-20T00:13:26.869Z,165.95
2019-03-20T00:18:32.669Z,216.20
2019-03-20T00:23:38.418Z,206.30
2019-03-20T00:28:44.190Z,41.00
2019-03-20T00:33:49.982Z,13.70
2019-03-20T00:38:56.035Z,8.25
2019-03-20T00:44:01.784Z,6.90
2019-03-20T00:49:07.569Z,6.00
2019-03-20T00:54:13.326Z,5.55
2019-03-20T00:59:19.106Z,5.65
2019-03-20T01:04:24.955Z,5.05
2019-03-20T01:14:51.738Z,5.20
2019-03-20T01:19:57.291Z,4.90
2019-03-20T01:25:02.875Z,5.15
2019-03-20T01:30:08.408Z,4.40
2019-03-20T01:35:23.441Z,4.60
2019-03-20T01:40:21.511Z,4.90
2019-03-20T01:45:27.314Z,4.40
2019-03-20T01:50:33.142Z,4.10
2019-03-20T01:55:38.949Z,4.40
2019-03-20T02:00:44.773Z,4.50
2019-03-20T02:05:50.549Z,3.70
2019-03-20T02:10:56.481Z,4.00
2019-03-20T02:16:02.200Z,78.50
2019-03-20T02:21:07.934Z,83.20
2019-03-20T02:26:13.793Z,429.80
2019-03-20T02:31:19.476Z,232.05
2019-03-20T02:36:25.212Z,67.50
2019-03-20T02:41:31.009Z,14.60
2019-03-20T02:46:36.757Z,7.80
2019-03-20T02:51:42.558Z,6.20
2019-03-20T02:56:48.425Z,4.90
2019-03-20T03:01:54.162Z,4.95
2019-03-20T03:06:59.931Z,4.80
2019-03-20T03:12:05.753Z,4.50
2019-03-20T03:17:11.564Z,3.80
2019-03-20T03:22:17.369Z,4.10
2019-03-20T03:27:23.105Z,4.10
2019-03-20T03:32:28.903Z,4.10
2019-03-20T03:37:34.633Z,3.60
2019-03-20T03:42:40.428Z,3.70
2019-03-20T03:47:46.158Z,3.60
2019-03-20T03:52:51.958Z,3.50
2019-03-20T03:57:57.807Z,3.85
2019-03-20T04:03:03.568Z,3.10
2019-03-20T04:08:11.202Z,3.50
2019-03-20T04:13:16.959Z,3.50
2019-03-20T04:18:22.743Z,3.10
2019-03-20T04:23:28.587Z,3.00
2019-03-20T04:28:34.432Z,3.75
2019-03-20T04:33:40.246Z,3.35
2019-03-20T04:38:45.973Z,3.50
2019-03-20T04:43:52.630Z,3.00
2019-03-20T04:48:58.293Z,3.20
2019-03-20T04:54:04.421Z,3.05
2019-03-20T04:59:10.202Z,3.20
2019-03-20T05:04:15.927Z,3.00
2019-03-20T05:09:21.705Z,3.15
2019-03-20T05:14:27.455Z,3.40
2019-03-20T05:19:33.239Z,3.20
2019-03-20T05:24:38.997Z,3.10
2019-03-20T05:29:44.768Z,3.00
2019-03-20T05:34:50.536Z,2.80
2019-03-20T05:39:56.313Z,2.80
2019-03-20T05:45:02.046Z,3.35
2019-03-20T05:50:07.801Z,2.90
2019-03-20T05:55:13.601Z,2.90
2019-03-20T06:00:20.887Z,3.10
2019-03-20T06:05:26.607Z,2.70
2019-03-20T06:10:32.421Z,3.10
2019-03-20T06:15:38.199Z,3.35
2019-03-20T06:20:43.946Z,3.20
2019-03-20T06:25:51.506Z,3.30
2019-03-20T06:30:57.119Z,3.30
2019-03-20T06:36:02.993Z,2.80
2019-03-20T06:41:08.801Z,3.50
2019-03-20T06:46:14.513Z,3.40
2019-03-20T06:51:20.282Z,3.20
2019-03-20T06:56:26.079Z,3.20
2019-03-20T07:01:31.827Z,3.60
2019-03-20T07:06:37.695Z,3.40
2019-03-20T07:11:43.450Z,3.30
2019-03-20T07:17:05.292Z,3.20
2019-03-20T07:22:10.785Z,3.30
2019-03-20T07:27:16.720Z,3.50
2019-03-20T07:32:23.209Z,3.30
2019-03-20T07:37:28.769Z,3.40
2019-03-20T07:42:34.321Z,3.50
2019-03-20T07:47:39.992Z,3.40
2019-03-20T07:52:45.666Z,3.30
2019-03-20T07:57:51.317Z,3.50
2019-03-20T08:02:56.886Z,3.70
2019-03-20T08:08:07.297Z,3.20
2019-03-20T08:13:10.004Z,3.55
2019-03-20T08:18:15.746Z,3.40
2019-03-20T08:23:21.481Z,3.00
2019-03-20T08:28:27.361Z,3.00
2019-03-20T08:33:33.143Z,6.20
2019-03-20T08:38:38.990Z,44.60
2019-03-20T08:43:45.671Z,87.20
2019-03-20T08:53:57.318Z,5.70
2019-03-20T08:59:03.177Z,4.55
2019-03-20T09:04:09.042Z,3.20
2019-03-20T09:09:14.806Z,3.20
2019-03-20T09:14:20.877Z,2.90
2019-03-20T09:19:26.750Z,2.80
2019-03-20T09:24:32.546Z,2.80
2019-03-20T09:29:41.132Z,2.70
2019-03-20T09:39:52.487Z,2.75
2019-03-20T09:44:58.293Z,2.35
2019-03-20T09:50:04.021Z,2.50
2019-03-20T09:55:09.883Z,2.20
2019-03-20T10:00:15.658Z,2.70
2019-03-20T10:05:21.511Z,2.45
2019-03-20T10:10:27.272Z,2.45
2019-03-20T10:15:33.253Z,2.60
2019-03-20T10:20:39.122Z,2.45
2019-03-20T10:25:45.138Z,2.30
2019-03-20T10:30:52.187Z,2.45
2019-03-20T10:35:57.959Z,2.70
2019-03-20T10:41:04.633Z,2.80
2019-03-20T10:46:10.372Z,2.65
2019-03-20T10:51:16.166Z,2.90
2019-03-20T10:56:21.956Z,3.20
2019-03-20T11:01:27.808Z,3.50
2019-03-20T11:06:33.595Z,3.70
2019-03-20T11:11:39.362Z,3.40
2019-03-20T11:16:45.196Z,2.60
2019-03-20T11:21:51.112Z,3.45
2019-03-20T11:26:57.061Z,4.20
2019-03-20T11:32:02.819Z,3.80
2019-03-20T11:37:08.610Z,4.20
2019-03-20T11:42:14.346Z,4.25
2019-03-20T11:47:20.106Z,4.30
2019-03-20T11:52:25.875Z,3.40
2019-03-20T11:57:31.774Z,4.20
2019-03-20T12:02:37.607Z,4.50
2019-03-20T12:07:43.402Z,4.30
2019-03-20T12:12:49.254Z,4.55
2019-03-20T12:17:55.149Z,4.85
2019-03-20T12:23:00.879Z,4.50
2019-03-20T12:28:06.696Z,4.80
2019-03-20T12:33:12.530Z,4.05
2019-03-20T12:38:18.284Z,3.75
2019-03-20T12:43:24.061Z,3.80
2019-03-20T12:48:29.845Z,4.10
2019-03-20T12:53:35.706Z,3.90
2019-03-20T12:58:41.834Z,4.50
2019-03-20T13:03:47.630Z,3.90
2019-03-20T13:08:53.393Z,3.90
2019-03-20T13:13:59.191Z,4.55
2019-03-20T13:19:19.877Z,3.75
2019-03-20T13:24:25.546Z,3.90
2019-03-20T13:29:31.202Z,3.70
2019-03-20T13:34:36.765Z,5.40
2019-03-20T13:39:42.329Z,4.20
2019-03-20T13:44:47.979Z,3.20
2019-03-20T13:49:53.484Z,3.20
2019-03-20T13:54:59.188Z,3.15
2019-03-20T14:00:04.767Z,3.30
2019-03-20T14:05:10.323Z,3.80
2019-03-20T14:10:24.517Z,3.40
2019-03-20T14:15:23.194Z,2.60
2019-03-20T14:20:28.660Z,3.00
2019-03-20T14:25:34.207Z,2.70
2019-03-20T14:30:39.787Z,2.45
2019-03-20T14:35:45.982Z,5.50
2019-03-20T14:40:52.358Z,3.05
2019-03-20T14:45:58.229Z,3.90
2019-03-20T14:51:04.726Z,4.20
2019-03-20T14:56:10.341Z,5.05
2019-03-20T15:01:15.908Z,4.10
2019-03-20T15:06:21.463Z,3.40
2019-03-20T15:11:27.033Z,3.50
2019-03-20T15:16:32.850Z,2.90
2019-03-20T15:21:38.473Z,3.80
2019-03-20T15:26:44.002Z,4.00
2019-03-20T15:31:49.569Z,5.30
2019-03-20T15:36:56.072Z,110.60
2019-03-20T15:42:03.192Z,7.80
2019-03-20T15:47:10.904Z,62.55
2019-03-20T15:57:23.827Z,9.55
2019-03-20T16:02:30.629Z,4.35
2019-03-20T16:17:49.451Z,294.10
2019-03-20T16:22:55.303Z,179.90
2019-03-20T16:43:25.669Z,185.20
2019-03-20T16:48:32.453Z,102.85
2019-03-20T16:53:38.704Z,117.20
2019-03-20T16:58:44.412Z,91.75
2019-03-20T17:03:51.887Z,238.90
2019-03-20T17:08:57.582Z,114.00
2019-03-20T17:14:04.041Z,310.90
2019-03-20T17:19:09.723Z,119.10
2019-03-20T17:24:15.324Z,124.45
2019-03-20T17:29:20.955Z,58.60
2019-03-20T17:34:27.649Z,113.80
2019-03-20T17:39:33.392Z,132.90
2019-03-20T18:05:02.806Z,141.20
2019-03-20T18:10:08.411Z,174.43
2019-03-20T18:15:14.437Z,221.85
2019-03-20T18:20:20.584Z,129.30
2019-03-20T18:35:38.755Z,325.05
2019-03-20T18:40:45.348Z,260.60
2019-03-20T18:45:52.430Z,249.55
2019-03-20T19:01:12.170Z,219.00
2019-03-20T19:06:19.291Z,213.50
2019-03-20T19:16:36.472Z,95.30
2019-03-20T19:32:26.406Z,27.10
2019-03-20T19:42:38.691Z,26.85
2019-03-20T19:58:22.091Z,88.75
2019-03-20T20:03:27.653Z,194.00
2019-03-20T20:08:33.874Z,145.10
2019-03-20T20:13:39.498Z,308.40
2019-03-20T20:18:45.414Z,104.80
2019-03-20T20:23:51.138Z,68.50
2019-03-20T20:28:57.045Z,69.50
2019-03-20T20:34:03.081Z,54.70
2019-03-20T20:39:09.141Z,111.90
2019-03-20T20:44:17.240Z,98.80
2019-03-20T20:54:29.384Z,26.00
2019-03-20T20:59:35.577Z,35.90
2019-03-20T21:04:42.243Z,49.77
2019-03-20T21:09:48.050Z,25.50
2019-03-20T21:14:54.421Z,30.50
2019-03-20T21:25:06.368Z,98.90
2019-03-20T21:30:12.678Z,80.00
2019-03-20T21:35:18.929Z,179.20
2019-03-20T21:40:24.972Z,98.65
2019-03-20T21:45:31.436Z,164.80
2019-03-20T21:50:38.109Z,338.10
2019-03-20T22:00:53.401Z,382.80
2019-03-20T22:11:07.979Z,53.80
2019-03-20T22:16:14.853Z,23.40
2019-03-20T22:26:27.226Z,18.30
2019-03-20T22:31:33.109Z,16.20
2019-03-20T22:36:39.061Z,15.80
2019-03-20T22:41:45.162Z,14.60
2019-03-20T22:46:51.418Z,13.85
2019-03-20T22:51:57.234Z,13.70
2019-03-20T22:57:03.470Z,115.90
2019-03-20T23:02:09.950Z,282.45
2019-03-20T23:07:16.810Z,180.80
2019-03-20T23:12:22.835Z,138.95
2019-03-20T23:17:28.977Z,241.40
2019-03-20T23:22:34.761Z,306.80
2019-03-20T23:27:40.521Z,244.20
2019-03-20T23:32:46.843Z,274.70
2019-03-20T23:37:53.006Z,104.00
2019-03-20T23:42:59.166Z,40.55
2019-03-20T23:48:05.116Z,24.00
2019-03-20T23:53:11.145Z,17.20
2019-03-20T23:58:17.222Z,14.90
